sensor_id;sensor_type;location;lat;lon;timestamp;temperature;humidity
8178;DHT22;4130;48.740;9.132;2023-02-28T00:00:36;-3.30;99.90
8178;DHT22;4130;48.740;9.132;2023-02-28T00:03:04;-3.20;99.90
8178;DHT22;4130;48.740;9.132;2023-02-28T00:05:32;-3.10;99.90
8178;DHT22;4130;48.740;9.132;2023-02-28T00:07:59;-3.00;99.90
8178;DHT22;4130;48.740;9.132;2023-02-28T00:10:28;-3.10;99.90
8178;DHT22;4130;48.740;9.132;2023-02-28T00:12:58;-3.20;99.90
8178;DHT22;4130;48.740;9.132;2023-02-28T00:15:25;-3.20;99.90
8178;DHT22;4130;48.740;9.132;2023-02-28T00:17:52;-3.30;99.90
8178;DHT22;4130;48.740;9.132;2023-02-28T00:20:19;-3.30;99.90
8178;DHT22;4130;48.740;9.132;2023-02-28T00:22:49;-3.40;99.90
8178;DHT22;4130;48.740;9.132;2023-02-28T00:25:18;-3.30;99.90
8178;DHT22;4130;48.740;9.132;2023-02-28T00:27:46;-3.40;99.90
8178;DHT22;4130;48.740;9.132;2023-02-28T00:30:15;-3.40;99.90
8178;DHT22;4130;48.740;9.132;2023-02-28T00:32:42;-3.40;99.90
8178;DHT22;4130;48.740;9.132;2023-02-28T00:35:10;-3.50;99.90
8178;DHT22;4130;48.740;9.132;2023-02-28T00:37:37;-3.50;99.90
8178;DHT22;4130;48.740;9.132;2023-02-28T00:40:06;-3.50;99.90
8178;DHT22;4130;48.740;9.132;2023-02-28T00:42:35;-3.50;99.90
8178;DHT22;4130;48.740;9.132;2023-02-28T00:45:02;-3.40;99.90
8178;DHT22;4130;48.740;9.132;2023-02-28T00:47:30;-3.40;99.90
8178;DHT22;4130;48.740;9.132;2023-02-28T00:49:57;-3.40;99.90
8178;DHT22;4130;48.740;9.132;2023-02-28T00:52:23;-3.40;99.90
8178;DHT22;4130;48.740;9.132;2023-02-28T00:54:50;-3.40;99.90
8178;DHT22;4130;48.740;9.132;2023-02-28T00:57:18;-3.50;99.90
8178;DHT22;4130;48.740;9.132;2023-02-28T00:59:45;-3.50;99.90
8178;DHT22;4130;48.740;9.132;2023-02-28T01:02:12;-3.50;99.90
8178;DHT22;4130;48.740;9.132;2023-02-28T01:04:38;-3.50;99.90
8178;DHT22;4130;48.740;9.132;2023-02-28T01:07:05;-3.50;99.90
8178;DHT22;4130;48.740;9.132;2023-02-28T01:09:32;-3.50;99.90
8178;DHT22;4130;48.740;9.132;2023-02-28T01:11:59;-3.60;99.90
8178;DHT22;4130;48.740;9.132;2023-02-28T01:14:27;-3.50;99.90
8178;DHT22;4130;48.740;9.132;2023-02-28T01:16:54;-3.60;99.90
8178;DHT22;4130;48.740;9.132;2023-02-28T01:19:20;-3.60;99.90
8178;DHT22;4130;48.740;9.132;2023-02-28T01:21:47;-3.60;99.90
8178;DHT22;4130;48.740;9.132;2023-02-28T01:24:14;-3.60;99.90
8178;DHT22;4130;48.740;9.132;2023-02-28T01:26:41;-3.60;99.90
8178;DHT22;4130;48.740;9.132;2023-02-28T01:29:07;-3.60;99.90
8178;DHT22;4130;48.740;9.132;2023-02-28T01:31:35;-3.60;99.90
8178;DHT22;4130;48.740;9.132;2023-02-28T01:34:03;-3.60;99.90
8178;DHT22;4130;48.740;9.132;2023-02-28T01:36:29;-3.60;99.90
8178;DHT22;4130;48.740;9.132;2023-02-28T01:38:56;-3.50;99.90
8178;DHT22;4130;48.740;9.132;2023-02-28T01:41:25;-3.50;99.90
8178;DHT22;4130;48.740;9.132;2023-02-28T01:43:56;-3.50;99.90
8178;DHT22;4130;48.740;9.132;2023-02-28T01:46:23;-3.50;99.90
8178;DHT22;4130;48.740;9.132;2023-02-28T01:48:56;-3.50;99.90
8178;DHT22;4130;48.740;9.132;2023-02-28T01:51:27;-3.50;99.90
8178;DHT22;4130;48.740;9.132;2023-02-28T01:53:58;-3.60;99.90
8178;DHT22;4130;48.740;9.132;2023-02-28T01:56:29;-3.60;99.90
8178;DHT22;4130;48.740;9.132;2023-02-28T01:58:57;-3.60;99.90
8178;DHT22;4130;48.740;9.132;2023-02-28T02:01:26;-3.60;99.90
8178;DHT22;4130;48.740;9.132;2023-02-28T02:03:57;-3.60;99.90
8178;DHT22;4130;48.740;9.132;2023-02-28T02:06:29;-3.50;99.90
8178;DHT22;4130;48.740;9.132;2023-02-28T02:08:57;-3.60;99.90
8178;DHT22;4130;48.740;9.132;2023-02-28T02:11:24;-3.60;99.90
8178;DHT22;4130;48.740;9.132;2023-02-28T02:14:12;-3.60;99.90
8178;DHT22;4130;48.740;9.132;2023-02-28T02:16:51;-3.50;99.90
8178;DHT22;4130;48.740;9.132;2023-02-28T02:19:41;-3.50;99.90
8178;DHT22;4130;48.740;9.132;2023-02-28T02:22:38;-3.50;99.90
8178;DHT22;4130;48.740;9.132;2023-02-28T02:25:25;-3.50;99.90
8178;DHT22;4130;48.740;9.132;2023-02-28T02:31:50;-3.40;99.90
8178;DHT22;4130;48.740;9.132;2023-02-28T02:34:27;-3.40;99.90
8178;DHT22;4130;48.740;9.132;2023-02-28T02:37:07;-3.30;99.90
8178;DHT22;4130;48.740;9.132;2023-02-28T02:39:40;-3.30;99.90
8178;DHT22;4130;48.740;9.132;2023-02-28T02:42:14;-3.20;99.90
8178;DHT22;4130;48.740;9.132;2023-02-28T02:44:47;-3.20;99.90
8178;DHT22;4130;48.740;9.132;2023-02-28T02:47:18;-3.10;99.90
8178;DHT22;4130;48.740;9.132;2023-02-28T02:49:50;-3.10;99.90
8178;DHT22;4130;48.740;9.132;2023-02-28T02:52:21;-3.00;99.90
8178;DHT22;4130;48.740;9.132;2023-02-28T02:54:51;-3.00;99.90
8178;DHT22;4130;48.740;9.132;2023-02-28T02:57:23;-2.90;99.90
8178;DHT22;4130;48.740;9.132;2023-02-28T02:59:51;-2.90;99.90
8178;DHT22;4130;48.740;9.132;2023-02-28T03:02:21;-2.80;99.90
8178;DHT22;4130;48.740;9.132;2023-02-28T03:04:52;-2.80;99.90
8178;DHT22;4130;48.740;9.132;2023-02-28T03:07:20;-2.80;99.90
8178;DHT22;4130;48.740;9.132;2023-02-28T03:09:51;-2.70;99.90
8178;DHT22;4130;48.740;9.132;2023-02-28T03:12:18;-2.70;99.90
8178;DHT22;4130;48.740;9.132;2023-02-28T03:14:55;-2.70;99.90
8178;DHT22;4130;48.740;9.132;2023-02-28T03:17:45;-2.70;99.90
8178;DHT22;4130;48.740;9.132;2023-02-28T03:20:21;-2.70;99.90
8178;DHT22;4130;48.740;9.132;2023-02-28T03:23:00;-2.60;99.90
8178;DHT22;4130;48.740;9.132;2023-02-28T03:25:33;-2.70;99.90
8178;DHT22;4130;48.740;9.132;2023-02-28T03:28:06;-2.70;99.90
8178;DHT22;4130;48.740;9.132;2023-02-28T03:30:41;-2.70;99.90
8178;DHT22;4130;48.740;9.132;2023-02-28T03:33:11;-2.70;99.90
8178;DHT22;4130;48.740;9.132;2023-02-28T03:35:43;-2.70;99.90
8178;DHT22;4130;48.740;9.132;2023-02-28T03:38:15;-2.60;99.90
8178;DHT22;4130;48.740;9.132;2023-02-28T03:40:47;-2.60;99.90
8178;DHT22;4130;48.740;9.132;2023-02-28T03:43:19;-2.60;99.90
8178;DHT22;4130;48.740;9.132;2023-02-28T03:45:50;-2.60;99.90
8178;DHT22;4130;48.740;9.132;2023-02-28T03:48:19;-2.50;99.90
8178;DHT22;4130;48.740;9.132;2023-02-28T03:50:52;-2.50;99.90
8178;DHT22;4130;48.740;9.132;2023-02-28T03:53:22;-2.50;99.90
8178;DHT22;4130;48.740;9.132;2023-02-28T03:55:54;-2.50;99.90
8178;DHT22;4130;48.740;9.132;2023-02-28T03:58:28;-2.50;99.90
8178;DHT22;4130;48.740;9.132;2023-02-28T04:01:00;-2.40;99.90
8178;DHT22;4130;48.740;9.132;2023-02-28T04:03:34;-2.40;99.90
8178;DHT22;4130;48.740;9.132;2023-02-28T04:06:04;-2.40;99.90
8178;DHT22;4130;48.740;9.132;2023-02-28T04:08:32;-2.30;99.90
8178;DHT22;4130;48.740;9.132;2023-02-28T04:11:02;-2.30;99.90
8178;DHT22;4130;48.740;9.132;2023-02-28T04:13:31;-2.30;99.90
8178;DHT22;4130;48.740;9.132;2023-02-28T04:15:58;-2.20;99.90
8178;DHT22;4130;48.740;9.132;2023-02-28T04:18:24;-2.20;99.90
8178;DHT22;4130;48.740;9.132;2023-02-28T04:20:51;-2.30;99.90
8178;DHT22;4130;48.740;9.132;2023-02-28T04:23:19;-2.20;99.90
8178;DHT22;4130;48.740;9.132;2023-02-28T04:25:46;-2.20;99.90
8178;DHT22;4130;48.740;9.132;2023-02-28T04:28:13;-2.20;99.90
8178;DHT22;4130;48.740;9.132;2023-02-28T04:30:39;-2.20;99.90
8178;DHT22;4130;48.740;9.132;2023-02-28T04:33:06;-2.20;99.90
8178;DHT22;4130;48.740;9.132;2023-02-28T04:35:33;-2.10;99.90
8178;DHT22;4130;48.740;9.132;2023-02-28T04:37:59;-2.10;99.90
8178;DHT22;4130;48.740;9.132;2023-02-28T04:40:27;-2.10;99.90
8178;DHT22;4130;48.740;9.132;2023-02-28T04:42:54;-2.10;99.90
8178;DHT22;4130;48.740;9.132;2023-02-28T04:45:21;-2.10;99.90
8178;DHT22;4130;48.740;9.132;2023-02-28T04:47:47;-2.10;99.90
8178;DHT22;4130;48.740;9.132;2023-02-28T04:50:15;-2.00;99.90
8178;DHT22;4130;48.740;9.132;2023-02-28T04:52:41;-2.00;99.90
8178;DHT22;4130;48.740;9.132;2023-02-28T04:55:08;-1.90;99.90
8178;DHT22;4130;48.740;9.132;2023-02-28T04:57:37;-2.00;99.90
8178;DHT22;4130;48.740;9.132;2023-02-28T05:00:04;-1.90;99.90
8178;DHT22;4130;48.740;9.132;2023-02-28T05:02:37;-1.90;99.90
8178;DHT22;4130;48.740;9.132;2023-02-28T05:05:04;-1.90;99.90
8178;DHT22;4130;48.740;9.132;2023-02-28T05:07:31;-1.90;99.90
8178;DHT22;4130;48.740;9.132;2023-02-28T05:09:58;-1.80;99.90
8178;DHT22;4130;48.740;9.132;2023-02-28T05:12:24;-1.90;99.90
8178;DHT22;4130;48.740;9.132;2023-02-28T05:14:53;-1.90;99.90
8178;DHT22;4130;48.740;9.132;2023-02-28T05:17:19;-1.90;99.90
8178;DHT22;4130;48.740;9.132;2023-02-28T05:19:46;-1.90;99.90
8178;DHT22;4130;48.740;9.132;2023-02-28T05:22:14;-1.90;99.90
8178;DHT22;4130;48.740;9.132;2023-02-28T05:24:41;-1.90;99.90
8178;DHT22;4130;48.740;9.132;2023-02-28T05:27:09;-1.90;99.90
8178;DHT22;4130;48.740;9.132;2023-02-28T05:29:36;-1.90;99.90
8178;DHT22;4130;48.740;9.132;2023-02-28T05:32:09;-1.90;99.90
8178;DHT22;4130;48.740;9.132;2023-02-28T05:34:36;-1.90;99.90
8178;DHT22;4130;48.740;9.132;2023-02-28T05:37:03;-1.90;99.90
8178;DHT22;4130;48.740;9.132;2023-02-28T05:39:30;-1.90;99.90
8178;DHT22;4130;48.740;9.132;2023-02-28T05:41:57;-1.90;99.90
8178;DHT22;4130;48.740;9.132;2023-02-28T05:44:24;-1.80;99.90
8178;DHT22;4130;48.740;9.132;2023-02-28T05:46:50;-1.80;99.90
8178;DHT22;4130;48.740;9.132;2023-02-28T05:49:18;-1.80;99.90
8178;DHT22;4130;48.740;9.132;2023-02-28T05:51:45;-1.80;99.90
8178;DHT22;4130;48.740;9.132;2023-02-28T05:54:12;-1.80;99.90
8178;DHT22;4130;48.740;9.132;2023-02-28T05:56:39;-1.80;99.90
8178;DHT22;4130;48.740;9.132;2023-02-28T05:59:09;-1.80;99.90
8178;DHT22;4130;48.740;9.132;2023-02-28T06:01:37;-1.80;99.90
8178;DHT22;4130;48.740;9.132;2023-02-28T06:04:06;-1.80;99.90
8178;DHT22;4130;48.740;9.132;2023-02-28T06:06:34;-1.80;99.90
8178;DHT22;4130;48.740;9.132;2023-02-28T06:09:02;-1.80;99.90
8178;DHT22;4130;48.740;9.132;2023-02-28T06:11:29;-1.80;99.90
8178;DHT22;4130;48.740;9.132;2023-02-28T06:13:57;-1.80;99.90
8178;DHT22;4130;48.740;9.132;2023-02-28T06:16:25;-1.70;99.90
8178;DHT22;4130;48.740;9.132;2023-02-28T06:18:52;-1.70;99.90
8178;DHT22;4130;48.740;9.132;2023-02-28T06:21:21;-1.70;99.90
8178;DHT22;4130;48.740;9.132;2023-02-28T06:23:49;-1.70;99.90
8178;DHT22;4130;48.740;9.132;2023-02-28T06:26:15;-1.70;99.90
8178;DHT22;4130;48.740;9.132;2023-02-28T06:28:42;-1.70;99.90
8178;DHT22;4130;48.740;9.132;2023-02-28T06:31:10;-1.70;99.90
8178;DHT22;4130;48.740;9.132;2023-02-28T06:33:39;-1.70;99.90
8178;DHT22;4130;48.740;9.132;2023-02-28T06:36:07;-1.70;99.90
8178;DHT22;4130;48.740;9.132;2023-02-28T06:38:34;-1.70;99.90
8178;DHT22;4130;48.740;9.132;2023-02-28T06:41:04;-1.60;99.90
8178;DHT22;4130;48.740;9.132;2023-02-28T06:43:34;-1.60;99.90
8178;DHT22;4130;48.740;9.132;2023-02-28T06:46:02;-1.60;99.90
8178;DHT22;4130;48.740;9.132;2023-02-28T06:48:29;-1.60;99.90
8178;DHT22;4130;48.740;9.132;2023-02-28T06:51:02;-1.50;99.90
8178;DHT22;4130;48.740;9.132;2023-02-28T06:53:29;-1.50;99.90
8178;DHT22;4130;48.740;9.132;2023-02-28T06:55:56;-1.50;99.90
8178;DHT22;4130;48.740;9.132;2023-02-28T06:58:24;-1.50;99.90
8178;DHT22;4130;48.740;9.132;2023-02-28T07:00:52;-1.50;99.90
8178;DHT22;4130;48.740;9.132;2023-02-28T07:03:19;-1.50;99.90
8178;DHT22;4130;48.740;9.132;2023-02-28T07:05:46;-1.40;99.90
8178;DHT22;4130;48.740;9.132;2023-02-28T07:08:12;-1.40;99.90
8178;DHT22;4130;48.740;9.132;2023-02-28T07:10:39;-1.40;99.90
8178;DHT22;4130;48.740;9.132;2023-02-28T07:13:08;-1.40;99.90
8178;DHT22;4130;48.740;9.132;2023-02-28T07:15:36;-1.40;99.90
8178;DHT22;4130;48.740;9.132;2023-02-28T07:18:03;-1.40;99.90
8178;DHT22;4130;48.740;9.132;2023-02-28T07:20:31;-1.30;99.90
8178;DHT22;4130;48.740;9.132;2023-02-28T07:22:57;-1.30;99.90
8178;DHT22;4130;48.740;9.132;2023-02-28T07:25:25;-1.30;99.90
8178;DHT22;4130;48.740;9.132;2023-02-28T07:27:53;-1.30;99.90
8178;DHT22;4130;48.740;9.132;2023-02-28T07:30:20;-1.30;99.90
8178;DHT22;4130;48.740;9.132;2023-02-28T07:32:48;-1.20;99.90
8178;DHT22;4130;48.740;9.132;2023-02-28T07:35:15;-1.20;99.90
8178;DHT22;4130;48.740;9.132;2023-02-28T07:37:42;-1.10;99.90
8178;DHT22;4130;48.740;9.132;2023-02-28T07:40:11;-1.10;99.90
8178;DHT22;4130;48.740;9.132;2023-02-28T07:42:38;-1.10;99.90
8178;DHT22;4130;48.740;9.132;2023-02-28T07:45:07;-1.00;99.90
8178;DHT22;4130;48.740;9.132;2023-02-28T07:47:36;-1.00;99.90
8178;DHT22;4130;48.740;9.132;2023-02-28T07:50:05;-1.00;99.90
8178;DHT22;4130;48.740;9.132;2023-02-28T07:52:32;-1.00;99.90
8178;DHT22;4130;48.740;9.132;2023-02-28T07:54:59;-1.00;99.90
8178;DHT22;4130;48.740;9.132;2023-02-28T07:57:26;-0.90;99.90
8178;DHT22;4130;48.740;9.132;2023-02-28T07:59:53;-0.80;99.90
8178;DHT22;4130;48.740;9.132;2023-02-28T08:02:19;-0.80;99.90
8178;DHT22;4130;48.740;9.132;2023-02-28T08:04:46;-0.70;99.90
8178;DHT22;4130;48.740;9.132;2023-02-28T08:07:15;-0.70;99.90
8178;DHT22;4130;48.740;9.132;2023-02-28T08:09:44;-0.60;99.90
8178;DHT22;4130;48.740;9.132;2023-02-28T08:12:11;-0.50;99.90
8178;DHT22;4130;48.740;9.132;2023-02-28T08:14:38;-0.50;99.90
8178;DHT22;4130;48.740;9.132;2023-02-28T08:17:06;-0.50;99.90
8178;DHT22;4130;48.740;9.132;2023-02-28T08:19:32;-0.40;99.90
8178;DHT22;4130;48.740;9.132;2023-02-28T08:21:59;-0.40;99.90
8178;DHT22;4130;48.740;9.132;2023-02-28T08:24:28;-0.30;99.90
8178;DHT22;4130;48.740;9.132;2023-02-28T08:26:55;-0.20;99.90
8178;DHT22;4130;48.740;9.132;2023-02-28T08:29:22;-0.20;99.90
8178;DHT22;4130;48.740;9.132;2023-02-28T08:31:49;-0.20;99.90
8178;DHT22;4130;48.740;9.132;2023-02-28T08:34:16;-0.20;99.90
8178;DHT22;4130;48.740;9.132;2023-02-28T08:36:43;-0.20;99.90
8178;DHT22;4130;48.740;9.132;2023-02-28T08:39:11;-0.10;99.90
8178;DHT22;4130;48.740;9.132;2023-02-28T08:41:39;-0.10;99.90
8178;DHT22;4130;48.740;9.132;2023-02-28T08:44:06;-0.20;99.90
8178;DHT22;4130;48.740;9.132;2023-02-28T08:46:33;-0.20;99.90
8178;DHT22;4130;48.740;9.132;2023-02-28T08:49:00;-0.10;99.90
8178;DHT22;4130;48.740;9.132;2023-02-28T08:51:28;-0.10;99.90
8178;DHT22;4130;48.740;9.132;2023-02-28T08:53:57;0.00;99.90
8178;DHT22;4130;48.740;9.132;2023-02-28T08:56:25;0.00;99.90
8178;DHT22;4130;48.740;9.132;2023-02-28T08:58:55;0.00;99.90
8178;DHT22;4130;48.740;9.132;2023-02-28T09:01:23;0.00;99.90
8178;DHT22;4130;48.740;9.132;2023-02-28T09:03:51;0.10;99.90
8178;DHT22;4130;48.740;9.132;2023-02-28T09:06:19;0.10;99.90
8178;DHT22;4130;48.740;9.132;2023-02-28T09:08:48;0.20;99.90
8178;DHT22;4130;48.740;9.132;2023-02-28T09:11:15;0.20;99.90
8178;DHT22;4130;48.740;9.132;2023-02-28T09:13:41;0.20;99.90
8178;DHT22;4130;48.740;9.132;2023-02-28T09:16:13;0.30;99.90
8178;DHT22;4130;48.740;9.132;2023-02-28T09:18:40;0.30;99.90
8178;DHT22;4130;48.740;9.132;2023-02-28T09:21:08;0.30;99.90
8178;DHT22;4130;48.740;9.132;2023-02-28T09:23:35;0.30;99.90
8178;DHT22;4130;48.740;9.132;2023-02-28T09:26:03;0.40;99.90
8178;DHT22;4130;48.740;9.132;2023-02-28T09:28:30;0.40;99.90
8178;DHT22;4130;48.740;9.132;2023-02-28T09:30:57;0.40;99.90
8178;DHT22;4130;48.740;9.132;2023-02-28T09:33:26;0.40;99.90
8178;DHT22;4130;48.740;9.132;2023-02-28T09:35:58;0.50;99.90
8178;DHT22;4130;48.740;9.132;2023-02-28T09:38:25;0.50;99.90
8178;DHT22;4130;48.740;9.132;2023-02-28T09:40:56;0.50;99.90
8178;DHT22;4130;48.740;9.132;2023-02-28T09:43:26;0.50;99.90
8178;DHT22;4130;48.740;9.132;2023-02-28T09:45:58;0.60;99.90
8178;DHT22;4130;48.740;9.132;2023-02-28T09:48:33;0.70;99.90
8178;DHT22;4130;48.740;9.132;2023-02-28T09:51:04;0.80;99.90
8178;DHT22;4130;48.740;9.132;2023-02-28T09:53:33;0.90;99.90
8178;DHT22;4130;48.740;9.132;2023-02-28T09:56:04;0.90;99.90
8178;DHT22;4130;48.740;9.132;2023-02-28T09:58:36;1.00;99.90
8178;DHT22;4130;48.740;9.132;2023-02-28T10:01:07;1.10;99.90
8178;DHT22;4130;48.740;9.132;2023-02-28T10:03:39;1.20;99.90
8178;DHT22;4130;48.740;9.132;2023-02-28T10:06:11;1.40;99.90
8178;DHT22;4130;48.740;9.132;2023-02-28T10:08:42;1.50;99.90
8178;DHT22;4130;48.740;9.132;2023-02-28T10:11:14;1.40;99.90
8178;DHT22;4130;48.740;9.132;2023-02-28T10:13:49;1.50;99.90
8178;DHT22;4130;48.740;9.132;2023-02-28T10:16:22;1.60;99.90
8178;DHT22;4130;48.740;9.132;2023-02-28T10:18:57;1.60;99.90
8178;DHT22;4130;48.740;9.132;2023-02-28T10:21:28;1.60;99.90
8178;DHT22;4130;48.740;9.132;2023-02-28T10:24:03;1.70;99.90
8178;DHT22;4130;48.740;9.132;2023-02-28T10:26:32;1.70;99.90
8178;DHT22;4130;48.740;9.132;2023-02-28T10:28:59;1.70;99.90
8178;DHT22;4130;48.740;9.132;2023-02-28T10:31:25;1.80;99.80
8178;DHT22;4130;48.740;9.132;2023-02-28T10:33:54;1.90;99.90
8178;DHT22;4130;48.740;9.132;2023-02-28T10:36:22;1.80;99.40
8178;DHT22;4130;48.740;9.132;2023-02-28T10:38:49;1.80;99.30
8178;DHT22;4130;48.740;9.132;2023-02-28T10:41:18;1.90;99.50
8178;DHT22;4130;48.740;9.132;2023-02-28T10:43:53;2.00;99.20
8178;DHT22;4130;48.740;9.132;2023-02-28T10:46:39;2.10;99.70
8178;DHT22;4130;48.740;9.132;2023-02-28T10:49:13;2.30;99.30
8178;DHT22;4130;48.740;9.132;2023-02-28T10:51:41;2.40;99.50
8178;DHT22;4130;48.740;9.132;2023-02-28T10:54:16;2.60;99.10
8178;DHT22;4130;48.740;9.132;2023-02-28T10:56:43;2.70;98.60
8178;DHT22;4130;48.740;9.132;2023-02-28T10:59:27;2.80;98.70
8178;DHT22;4130;48.740;9.132;2023-02-28T11:01:54;3.00;98.20
8178;DHT22;4130;48.740;9.132;2023-02-28T11:04:34;3.20;98.70
8178;DHT22;4130;48.740;9.132;2023-02-28T11:07:05;3.50;98.50
8178;DHT22;4130;48.740;9.132;2023-02-28T11:09:34;3.70;98.70
8178;DHT22;4130;48.740;9.132;2023-02-28T11:12:02;3.80;97.60
8178;DHT22;4130;48.740;9.132;2023-02-28T11:14:34;3.70;97.00
8178;DHT22;4130;48.740;9.132;2023-02-28T11:17:13;3.70;96.60
8178;DHT22;4130;48.740;9.132;2023-02-28T11:19:45;3.70;96.50
8178;DHT22;4130;48.740;9.132;2023-02-28T11:22:19;3.20;96.70
8178;DHT22;4130;48.740;9.132;2023-02-28T11:24:49;3.00;96.30
8178;DHT22;4130;48.740;9.132;2023-02-28T11:30:25;2.60;96.70
8178;DHT22;4130;48.740;9.132;2023-02-28T11:32:52;2.70;96.60
8178;DHT22;4130;48.740;9.132;2023-02-28T11:35:24;2.80;97.00
8178;DHT22;4130;48.740;9.132;2023-02-28T11:37:52;2.90;97.10
8178;DHT22;4130;48.740;9.132;2023-02-28T11:40:24;2.80;96.80
8178;DHT22;4130;48.740;9.132;2023-02-28T11:43:01;2.60;96.50
8178;DHT22;4130;48.740;9.132;2023-02-28T11:45:43;2.80;96.90
8178;DHT22;4130;48.740;9.132;2023-02-28T11:48:16;3.10;97.30
8178;DHT22;4130;48.740;9.132;2023-02-28T11:50:53;3.50;97.00
8178;DHT22;4130;48.740;9.132;2023-02-28T11:53:30;3.80;96.40
8178;DHT22;4130;48.740;9.132;2023-02-28T11:56:05;4.20;96.30
8178;DHT22;4130;48.740;9.132;2023-02-28T11:58:45;4.50;96.30
8178;DHT22;4130;48.740;9.132;2023-02-28T12:01:29;4.80;95.60
8178;DHT22;4130;48.740;9.132;2023-02-28T12:04:09;5.10;95.50
8178;DHT22;4130;48.740;9.132;2023-02-28T12:06:44;5.40;95.70
8178;DHT22;4130;48.740;9.132;2023-02-28T12:09:36;5.60;95.30
8178;DHT22;4130;48.740;9.132;2023-02-28T12:12:21;5.80;94.50
8178;DHT22;4130;48.740;9.132;2023-02-28T12:15:16;5.70;93.80
8178;DHT22;4130;48.740;9.132;2023-02-28T12:17:51;5.80;94.00
8178;DHT22;4130;48.740;9.132;2023-02-28T12:20:28;5.90;94.30
8178;DHT22;4130;48.740;9.132;2023-02-28T12:23:21;5.80;93.70
8178;DHT22;4130;48.740;9.132;2023-02-28T12:25:59;5.40;94.00
8178;DHT22;4130;48.740;9.132;2023-02-28T12:28:30;5.10;94.00
8178;DHT22;4130;48.740;9.132;2023-02-28T12:31:01;5.00;93.90
8178;DHT22;4130;48.740;9.132;2023-02-28T12:33:34;4.80;93.90
8178;DHT22;4130;48.740;9.132;2023-02-28T12:36:05;4.90;94.30
8178;DHT22;4130;48.740;9.132;2023-02-28T12:38:41;5.10;94.20
8178;DHT22;4130;48.740;9.132;2023-02-28T12:41:13;5.20;93.40
8178;DHT22;4130;48.740;9.132;2023-02-28T12:43:45;5.40;93.60
8178;DHT22;4130;48.740;9.132;2023-02-28T12:46:16;5.50;93.60
8178;DHT22;4130;48.740;9.132;2023-02-28T12:48:47;5.50;93.60
8178;DHT22;4130;48.740;9.132;2023-02-28T12:51:16;5.40;93.40
8178;DHT22;4130;48.740;9.132;2023-02-28T12:53:57;5.60;93.60
8178;DHT22;4130;48.740;9.132;2023-02-28T12:56:37;5.50;93.10
8178;DHT22;4130;48.740;9.132;2023-02-28T12:59:12;5.40;93.30
8178;DHT22;4130;48.740;9.132;2023-02-28T13:01:51;5.10;93.20
8178;DHT22;4130;48.740;9.132;2023-02-28T13:04:47;5.00;93.20
8178;DHT22;4130;48.740;9.132;2023-02-28T13:07:40;5.10;93.80
8178;DHT22;4130;48.740;9.132;2023-02-28T13:10:14;5.20;93.60
8178;DHT22;4130;48.740;9.132;2023-02-28T13:12:48;5.30;93.20
8178;DHT22;4130;48.740;9.132;2023-02-28T13:15:18;5.40;93.20
8178;DHT22;4130;48.740;9.132;2023-02-28T13:17:49;5.30;93.20
8178;DHT22;4130;48.740;9.132;2023-02-28T13:20:18;5.40;92.90
8178;DHT22;4130;48.740;9.132;2023-02-28T13:22:47;5.20;92.80
8178;DHT22;4130;48.740;9.132;2023-02-28T13:34:36;5.30;93.00
8178;DHT22;4130;48.740;9.132;2023-02-28T13:37:35;5.40;93.00
8178;DHT22;4130;48.740;9.132;2023-02-28T13:40:29;5.50;93.10
8178;DHT22;4130;48.740;9.132;2023-02-28T13:43:02;5.50;92.70
8178;DHT22;4130;48.740;9.132;2023-02-28T13:45:29;5.50;92.60
8178;DHT22;4130;48.740;9.132;2023-02-28T13:48:03;5.40;92.80
8178;DHT22;4130;48.740;9.132;2023-02-28T13:50:36;5.40;93.20
8178;DHT22;4130;48.740;9.132;2023-02-28T13:53:41;5.50;93.20
8178;DHT22;4130;48.740;9.132;2023-02-28T13:56:36;5.60;92.80
8178;DHT22;4130;48.740;9.132;2023-02-28T13:59:20;5.50;93.00
8178;DHT22;4130;48.740;9.132;2023-02-28T14:02:02;5.50;92.80
8178;DHT22;4130;48.740;9.132;2023-02-28T14:04:54;5.30;93.00
8178;DHT22;4130;48.740;9.132;2023-02-28T14:07:28;5.20;92.40
8178;DHT22;4130;48.740;9.132;2023-02-28T14:10:01;5.20;92.50
8178;DHT22;4130;48.740;9.132;2023-02-28T14:12:53;5.20;92.60
8178;DHT22;4130;48.740;9.132;2023-02-28T14:15:39;5.30;92.60
8178;DHT22;4130;48.740;9.132;2023-02-28T14:21:01;5.30;92.50
8178;DHT22;4130;48.740;9.132;2023-02-28T14:23:40;5.30;92.60
8178;DHT22;4130;48.740;9.132;2023-02-28T14:26:18;5.30;92.60
8178;DHT22;4130;48.740;9.132;2023-02-28T14:29:01;5.40;92.60
8178;DHT22;4130;48.740;9.132;2023-02-28T14:31:37;5.40;92.50
8178;DHT22;4130;48.740;9.132;2023-02-28T14:34:21;5.40;92.50
8178;DHT22;4130;48.740;9.132;2023-02-28T14:36:52;5.30;92.50
8178;DHT22;4130;48.740;9.132;2023-02-28T14:39:22;5.20;92.50
8178;DHT22;4130;48.740;9.132;2023-02-28T14:41:50;5.20;92.70
8178;DHT22;4130;48.740;9.132;2023-02-28T14:44:19;5.20;92.50
8178;DHT22;4130;48.740;9.132;2023-02-28T14:46:48;5.20;92.40
8178;DHT22;4130;48.740;9.132;2023-02-28T14:49:28;5.20;92.30
8178;DHT22;4130;48.740;9.132;2023-02-28T14:52:06;5.30;92.50
8178;DHT22;4130;48.740;9.132;2023-02-28T14:54:37;5.40;92.20
8178;DHT22;4130;48.740;9.132;2023-02-28T14:57:04;5.30;92.50
8178;DHT22;4130;48.740;9.132;2023-02-28T14:59:32;5.30;92.50
8178;DHT22;4130;48.740;9.132;2023-02-28T15:02:20;5.30;92.20
8178;DHT22;4130;48.740;9.132;2023-02-28T15:04:58;5.30;92.50
8178;DHT22;4130;48.740;9.132;2023-02-28T15:07:25;5.30;92.50
8178;DHT22;4130;48.740;9.132;2023-02-28T15:10:19;5.30;92.20
8178;DHT22;4130;48.740;9.132;2023-02-28T15:12:51;5.30;92.50
8178;DHT22;4130;48.740;9.132;2023-02-28T15:15:19;5.20;92.10
8178;DHT22;4130;48.740;9.132;2023-02-28T15:17:49;5.10;92.20
8178;DHT22;4130;48.740;9.132;2023-02-28T15:20:17;5.20;92.40
8178;DHT22;4130;48.740;9.132;2023-02-28T15:22:46;5.20;92.40
8178;DHT22;4130;48.740;9.132;2023-02-28T15:25:18;5.20;92.70
8178;DHT22;4130;48.740;9.132;2023-02-28T15:27:48;5.10;92.20
8178;DHT22;4130;48.740;9.132;2023-02-28T15:30:20;5.10;92.40
8178;DHT22;4130;48.740;9.132;2023-02-28T15:33:15;5.10;92.30
8178;DHT22;4130;48.740;9.132;2023-02-28T15:35:44;5.00;92.30
8178;DHT22;4130;48.740;9.132;2023-02-28T15:38:16;5.10;92.10
8178;DHT22;4130;48.740;9.132;2023-02-28T15:40:51;5.00;92.30
8178;DHT22;4130;48.740;9.132;2023-02-28T15:43:26;5.00;92.30
8178;DHT22;4130;48.740;9.132;2023-02-28T15:45:56;5.00;92.40
8178;DHT22;4130;48.740;9.132;2023-02-28T15:48:25;5.00;92.60
8178;DHT22;4130;48.740;9.132;2023-02-28T15:50:55;4.90;92.20
8178;DHT22;4130;48.740;9.132;2023-02-28T15:53:26;4.90;92.10
8178;DHT22;4130;48.740;9.132;2023-02-28T15:56:02;4.80;92.30
8178;DHT22;4130;48.740;9.132;2023-02-28T15:58:30;4.80;92.60
8178;DHT22;4130;48.740;9.132;2023-02-28T16:01:05;4.70;92.50
8178;DHT22;4130;48.740;9.132;2023-02-28T16:03:40;4.70;92.80
8178;DHT22;4130;48.740;9.132;2023-02-28T16:06:32;4.60;92.60
8178;DHT22;4130;48.740;9.132;2023-02-28T16:08:59;4.40;92.50
8178;DHT22;4130;48.740;9.132;2023-02-28T16:11:28;4.40;92.80
8178;DHT22;4130;48.740;9.132;2023-02-28T16:13:56;4.30;92.90
8178;DHT22;4130;48.740;9.132;2023-02-28T16:16:24;4.20;93.00
8178;DHT22;4130;48.740;9.132;2023-02-28T16:18:52;4.10;93.00
8178;DHT22;4130;48.740;9.132;2023-02-28T16:21:20;4.10;93.20
8178;DHT22;4130;48.740;9.132;2023-02-28T16:23:47;4.00;93.20
8178;DHT22;4130;48.740;9.132;2023-02-28T16:26:19;3.80;93.20
8178;DHT22;4130;48.740;9.132;2023-02-28T16:28:48;3.90;93.30
8178;DHT22;4130;48.740;9.132;2023-02-28T16:31:16;3.60;93.60
8178;DHT22;4130;48.740;9.132;2023-02-28T16:33:44;3.50;93.60
8178;DHT22;4130;48.740;9.132;2023-02-28T16:36:16;3.40;93.50
8178;DHT22;4130;48.740;9.132;2023-02-28T16:38:43;3.30;93.60
8178;DHT22;4130;48.740;9.132;2023-02-28T16:41:13;3.20;93.70
8178;DHT22;4130;48.740;9.132;2023-02-28T16:43:45;3.10;94.10
8178;DHT22;4130;48.740;9.132;2023-02-28T16:46:13;2.90;94.00
8178;DHT22;4130;48.740;9.132;2023-02-28T16:48:42;2.90;94.10
8178;DHT22;4130;48.740;9.132;2023-02-28T16:51:12;2.70;94.20
8178;DHT22;4130;48.740;9.132;2023-02-28T16:53:39;2.70;94.20